Time;durP1;ratioP1;P1;durP2;ratioP2;P2;SDS_P1;SDS_P2;PMS_P1;PMS_P2;Temp;Humidity;BMP_temperature;BMP_pressure;BME280_temperature;BME280_humidity;BME280_pressure;Samples;Min_cycle;Max_cycle;Signal;HPM_P1;HPM_P2
2022/03/26 00:02:15;;;;;;;7.50;5.07;;;;;;;;;;5056860;28;20025;-67
2022/03/26 00:04:41;;;;;;;7.47;5.13;;;;;;;;;;5056467;28;20127;-67
2022/03/26 00:07:06;;;;;;;8.13;5.07;;;;;;;;;;5056942;28;20029;-67
2022/03/26 00:09:32;;;;;;;6.93;5.68;;;;;;;;;;5074611;28;20070;-67
2022/03/26 00:11:58;;;;;;;9.68;5.13;;;;;;;;;;5078335;28;20595;-67
2022/03/26 00:14:24;;;;;;;7.70;5.40;;;;;;;;;;5074880;28;20075;-67
2022/03/26 00:16:50;;;;;;;8.20;5.13;;;;;;;;;;5074243;28;20031;-66
2022/03/26 00:19:16;;;;;;;11.32;6.05;;;;;;;;;;5074462;28;20032;-66
2022/03/26 00:21:45;;;;;;;7.50;5.30;;;;;;;;;;5074385;28;20427;-67
2022/03/26 00:24:11;;;;;;;7.65;5.03;;;;;;;;;;5074331;28;20028;-67
2022/03/26 00:26:37;;;;;;;8.18;5.10;;;;;;;;;;5074661;28;20107;-68
2022/03/26 00:29:03;;;;;;;11.32;5.72;;;;;;;;;;5054941;28;20040;-68
2022/03/26 00:31:30;;;;;;;6.25;5.22;;;;;;;;;;5074429;28;20494;-69
2022/03/26 00:33:55;;;;;;;8.68;5.78;;;;;;;;;;5056420;28;20025;-68
2022/03/26 00:36:22;;;;;;;8.55;6.00;;;;;;;;;;5074447;28;20039;-68
2022/03/26 00:38:48;;;;;;;11.80;5.13;;;;;;;;;;5074354;28;20035;-71
2022/03/26 00:41:14;;;;;;;6.25;5.03;;;;;;;;;;5055952;28;20028;-69
2022/03/26 00:43:40;;;;;;;10.43;5.45;;;;;;;;;;5074119;28;20020;-66
2022/03/26 00:46:06;;;;;;;9.27;5.80;;;;;;;;;;5074277;28;20028;-67
2022/03/26 00:48:32;;;;;;;12.77;5.63;;;;;;;;;;5066330;28;20064;-67
2022/03/26 00:50:58;;;;;;;10.20;5.70;;;;;;;;;;5055658;28;20392;-67
2022/03/26 00:53:24;;;;;;;8.55;5.82;;;;;;;;;;5074090;28;20056;-67
2022/03/26 00:55:50;;;;;;;9.18;5.55;;;;;;;;;;5074224;28;20028;-68
2022/03/26 00:58:16;;;;;;;6.60;5.38;;;;;;;;;;5074047;28;20032;-67
2022/03/26 01:00:42;;;;;;;10.57;5.72;;;;;;;;;;5056092;28;20161;-67
2022/03/26 01:03:09;;;;;;;7.22;5.68;;;;;;;;;;5073860;28;20044;-68
2022/03/26 01:05:36;;;;;;;7.68;5.32;;;;;;;;;;5073733;28;20061;-67
2022/03/26 01:08:02;;;;;;;6.63;5.15;;;;;;;;;;5073936;28;20020;-67
2022/03/26 01:10:28;;;;;;;8.65;5.30;;;;;;;;;;5055742;28;20032;-68
2022/03/26 01:12:55;;;;;;;8.73;5.93;;;;;;;;;;5073504;28;20107;-67
2022/03/26 01:15:22;;;;;;;7.40;5.85;;;;;;;;;;5073671;28;20024;-68
2022/03/26 01:17:49;;;;;;;8.65;5.78;;;;;;;;;;5073694;28;20135;-68
2022/03/26 01:20:17;;;;;;;12.50;6.03;;;;;;;;;;5073018;28;20483;-66
2022/03/26 01:22:43;;;;;;;8.20;5.28;;;;;;;;;;5073116;28;20032;-68
2022/03/26 01:25:10;;;;;;;10.15;5.75;;;;;;;;;;5073511;28;20375;-66
2022/03/26 01:27:36;;;;;;;6.93;5.53;;;;;;;;;;5073595;28;20022;-66
2022/03/26 01:30:03;;;;;;;6.55;5.70;;;;;;;;;;5072651;28;20051;-66
2022/03/26 01:32:29;;;;;;;9.05;5.90;;;;;;;;;;5073167;28;20024;-66
2022/03/26 01:34:55;;;;;;;7.22;5.60;;;;;;;;;;5073332;28;20116;-69
2022/03/26 01:37:21;;;;;;;8.38;5.97;;;;;;;;;;5065767;28;20020;-68
2022/03/26 01:39:47;;;;;;;7.75;5.53;;;;;;;;;;5072955;28;20164;-67
2022/03/26 01:42:13;;;;;;;11.32;6.13;;;;;;;;;;5073393;28;20019;-67
2022/03/26 01:44:39;;;;;;;15.10;7.38;;;;;;;;;;5073227;28;20050;-64
2022/03/26 01:47:05;;;;;;;10.45;6.65;;;;;;;;;;5073118;28;20060;-66
2022/03/26 01:49:32;;;;;;;9.85;6.70;;;;;;;;;;5072998;28;20047;-69
2022/03/26 01:51:58;;;;;;;9.35;6.10;;;;;;;;;;5073079;28;20456;-70
2022/03/26 01:54:24;;;;;;;10.02;6.30;;;;;;;;;;5072234;28;20031;-69
2022/03/26 01:56:50;;;;;;;13.65;6.40;;;;;;;;;;5072945;28;20214;-65
2022/03/26 01:59:16;;;;;;;9.38;6.68;;;;;;;;;;5072694;28;20609;-70
2022/03/26 02:01:42;;;;;;;8.82;6.05;;;;;;;;;;5072616;28;20131;-68
2022/03/26 02:04:09;;;;;;;10.40;6.50;;;;;;;;;;5072655;28;20171;-66
2022/03/26 02:06:35;;;;;;;14.77;6.70;;;;;;;;;;5072787;28;20036;-67
2022/03/26 02:09:02;;;;;;;16.02;5.65;;;;;;;;;;5072586;28;20479;-67
2022/03/26 02:11:32;;;;;;;11.02;6.57;;;;;;;;;;5075551;28;20020;-67
2022/03/26 02:13:58;;;;;;;11.13;5.95;;;;;;;;;;5052638;28;20048;-67
2022/03/26 02:16:24;;;;;;;10.80;6.90;;;;;;;;;;5052405;28;20072;-71
2022/03/26 02:18:51;;;;;;;7.80;6.30;;;;;;;;;;5052692;28;20036;-66
2022/03/26 02:21:17;;;;;;;12.85;6.18;;;;;;;;;;5052113;28;20048;-68
2022/03/26 02:23:44;;;;;;;11.80;5.93;;;;;;;;;;5052120;28;20476;-66
2022/03/26 02:26:10;;;;;;;11.30;6.30;;;;;;;;;;5067692;28;20059;-67
2022/03/26 02:28:36;;;;;;;11.77;6.43;;;;;;;;;;5071793;28;20052;-69
2022/03/26 02:31:02;;;;;;;8.95;6.15;;;;;;;;;;5072227;28;20031;-66
2022/03/26 02:33:28;;;;;;;7.97;5.80;;;;;;;;;;5072262;28;20033;-66
2022/03/26 02:35:55;;;;;;;13.05;6.20;;;;;;;;;;5072339;28;20064;-68
2022/03/26 02:38:23;;;;;;;8.75;6.13;;;;;;;;;;5072677;28;20464;-68
2022/03/26 02:40:49;;;;;;;10.50;6.47;;;;;;;;;;5054072;28;20032;-69
2022/03/26 02:43:15;;;;;;;8.90;6.38;;;;;;;;;;5072321;28;20407;-69
2022/03/26 02:45:44;;;;;;;10.85;6.38;;;;;;;;;;5053867;28;20093;-67
2022/03/26 02:48:12;;;;;;;8.48;6.10;;;;;;;;;;5063797;28;20035;-67
2022/03/26 02:50:39;;;;;;;8.25;6.53;;;;;;;;;;5071996;28;20111;-66
2022/03/26 02:53:05;;;;;;;7.55;6.07;;;;;;;;;;5071683;28;20061;-65
2022/03/26 02:55:31;;;;;;;7.60;5.82;;;;;;;;;;5072040;28;20037;-68
2022/03/26 02:57:57;;;;;;;8.85;6.43;;;;;;;;;;5072270;28;20028;-66
2022/03/26 03:00:23;;;;;;;7.95;6.30;;;;;;;;;;5071993;28;20021;-68
2022/03/26 03:02:49;;;;;;;9.80;6.57;;;;;;;;;;5071206;28;20361;-67
2022/03/26 03:05:15;;;;;;;13.05;6.85;;;;;;;;;;5071490;28;20048;-66
2022/03/26 03:07:41;;;;;;;9.20;6.47;;;;;;;;;;5071901;28;20650;-67
2022/03/26 03:10:08;;;;;;;9.45;6.55;;;;;;;;;;5072273;28;20094;-68
2022/03/26 03:12:34;;;;;;;11.30;6.57;;;;;;;;;;5071746;28;20798;-66
2022/03/26 03:15:00;;;;;;;9.70;6.32;;;;;;;;;;5072233;28;20071;-67
2022/03/26 03:17:26;;;;;;;12.98;6.28;;;;;;;;;;5072320;28;20101;-66
2022/03/26 03:19:52;;;;;;;9.80;6.15;;;;;;;;;;5071990;28;20021;-67
2022/03/26 03:22:18;;;;;;;22.00;6.75;;;;;;;;;;5071581;28;20040;-66
2022/03/26 03:24:44;;;;;;;9.60;6.80;;;;;;;;;;5071906;28;20028;-66
2022/03/26 03:27:10;;;;;;;13.98;6.38;;;;;;;;;;5071807;28;20024;-67
2022/03/26 03:29:36;;;;;;;17.02;6.30;;;;;;;;;;5071376;28;20033;-65
2022/03/26 03:32:02;;;;;;;17.98;6.55;;;;;;;;;;5071681;28;20383;-66
2022/03/26 03:34:28;;;;;;;10.52;6.65;;;;;;;;;;5071748;28;20031;-66
2022/03/26 03:36:54;;;;;;;14.52;7.13;;;;;;;;;;5052840;28;20032;-66
2022/03/26 03:39:22;;;;;;;16.85;7.10;;;;;;;;;;5071777;28;20452;-66
2022/03/26 03:41:48;;;;;;;12.15;6.97;;;;;;;;;;5053552;28;20376;-66
2022/03/26 03:44:14;;;;;;;17.42;6.85;;;;;;;;;;5071764;28;20491;-66
2022/03/26 03:46:40;;;;;;;12.35;6.80;;;;;;;;;;5071518;28;20380;-66
2022/03/26 03:49:06;;;;;;;13.88;7.28;;;;;;;;;;5071659;28;20036;-66
2022/03/26 03:51:32;;;;;;;21.80;7.15;;;;;;;;;;5071468;28;20028;-69
2022/03/26 03:53:58;;;;;;;30.92;7.35;;;;;;;;;;5070843;28;20107;-68
2022/03/26 03:56:24;;;;;;;11.40;7.22;;;;;;;;;;5071827;28;20136;-67
2022/03/26 03:58:50;;;;;;;11.20;7.00;;;;;;;;;;5071624;28;20028;-67
2022/03/26 04:01:16;;;;;;;14.45;8.13;;;;;;;;;;5071449;28;20028;-67
2022/03/26 04:03:42;;;;;;;21.88;6.97;;;;;;;;;;5072234;28;20078;-68
2022/03/26 04:06:08;;;;;;;12.32;7.70;;;;;;;;;;5056876;28;20052;-67
2022/03/26 04:08:35;;;;;;;16.42;7.18;;;;;;;;;;5074360;28;20051;-68
2022/03/26 04:11:01;;;;;;;13.18;7.40;;;;;;;;;;5074737;28;20024;-67
2022/03/26 04:13:27;;;;;;;11.05;7.35;;;;;;;;;;5078634;28;20467;-68
2022/03/26 04:15:53;;;;;;;10.68;8.10;;;;;;;;;;5074992;28;20029;-67
2022/03/26 04:18:20;;;;;;;26.63;8.52;;;;;;;;;;5076919;28;20032;-67
2022/03/26 04:20:46;;;;;;;26.02;8.48;;;;;;;;;;5074642;28;20694;-66
2022/03/26 04:23:12;;;;;;;21.05;8.18;;;;;;;;;;5074172;28;20036;-68
2022/03/26 04:25:38;;;;;;;21.92;8.43;;;;;;;;;;5074122;28;20024;-67
2022/03/26 04:28:04;;;;;;;23.50;8.68;;;;;;;;;;5074143;28;20032;-67
2022/03/26 04:30:30;;;;;;;18.17;8.63;;;;;;;;;;5074620;28;20107;-66
2022/03/26 04:32:56;;;;;;;19.35;7.32;;;;;;;;;;5074491;28;20024;-66
2022/03/26 04:35:22;;;;;;;12.52;7.90;;;;;;;;;;5074614;28;20033;-66
2022/03/26 04:37:48;;;;;;;17.77;7.93;;;;;;;;;;5073452;28;20054;-68
2022/03/26 04:40:14;;;;;;;17.15;8.40;;;;;;;;;;5074679;28;20097;-67
2022/03/26 04:42:41;;;;;;;16.10;8.23;;;;;;;;;;5056754;28;20036;-67
2022/03/26 04:45:07;;;;;;;15.45;7.85;;;;;;;;;;5056158;28;20383;-67
2022/03/26 04:47:34;;;;;;;15.15;8.85;;;;;;;;;;5074331;28;20085;-67
2022/03/26 04:50:00;;;;;;;16.60;8.85;;;;;;;;;;5074125;28;20043;-68
2022/03/26 04:52:26;;;;;;;14.55;7.68;;;;;;;;;;5074036;28;20478;-68
2022/03/26 04:54:52;;;;;;;15.30;7.95;;;;;;;;;;5073977;28;20025;-68
2022/03/26 04:57:18;;;;;;;15.88;7.55;;;;;;;;;;5073461;28;20099;-67
2022/03/26 04:59:47;;;;;;;11.50;8.23;;;;;;;;;;5074118;28;20111;-67
2022/03/26 05:02:13;;;;;;;17.90;8.63;;;;;;;;;;5073925;28;20024;-66
2022/03/26 05:04:39;;;;;;;14.23;8.80;;;;;;;;;;5073798;28;20114;-69
2022/03/26 05:07:45;;;;;;;15.15;8.88;;;;;;;;;;5073930;28;20029;-67
2022/03/26 05:09:51;;;;;;;19.40;8.75;;;;;;;;;;5073509;28;20063;-69
2022/03/26 05:12:18;;;;;;;16.00;8.82;;;;;;;;;;5073681;28;20109;-67
2022/03/26 05:14:44;;;;;;;16.98;10.15;;;;;;;;;;5072499;28;20032;-67
2022/03/26 05:17:11;;;;;;;30.95;10.02;;;;;;;;;;5075477;28;20036;-70
2022/03/26 05:19:37;;;;;;;18.58;9.90;;;;;;;;;;5073363;28;20095;-66
2022/03/26 05:22:04;;;;;;;22.05;9.38;;;;;;;;;;5073696;28;20025;-66
2022/03/26 05:24:30;;;;;;;19.02;8.57;;;;;;;;;;5073985;28;20433;-68
2022/03/26 05:26:56;;;;;;;32.40;10.20;;;;;;;;;;5073971;28;20052;-67
2022/03/26 05:29:22;;;;;;;19.92;10.88;;;;;;;;;;5054608;28;20079;-67
2022/03/26 05:31:48;;;;;;;19.60;10.02;;;;;;;;;;5054470;28;20028;-66
2022/03/26 05:34:14;;;;;;;36.47;10.50;;;;;;;;;;5074936;28;20482;-67
2022/03/26 05:36:40;;;;;;;28.40;11.80;;;;;;;;;;5072845;28;20421;-67
2022/03/26 05:39:06;;;;;;;32.17;11.02;;;;;;;;;;5073327;28;20510;-67
2022/03/26 05:41:32;;;;;;;42.80;11.60;;;;;;;;;;5073632;28;20044;-67
2022/03/26 05:43:59;;;;;;;25.15;10.95;;;;;;;;;;5072783;28;20095;-67
2022/03/26 05:46:29;;;;;;;29.80;11.80;;;;;;;;;;5054696;28;20016;-67
2022/03/26 05:48:55;;;;;;;29.08;11.45;;;;;;;;;;5070912;28;20032;-67
2022/03/26 05:51:21;;;;;;;24.27;11.30;;;;;;;;;;5074200;28;20093;-68
2022/03/26 05:53:49;;;;;;;32.42;12.38;;;;;;;;;;5084957;28;20030;-70
2022/03/26 05:56:15;;;;;;;31.92;12.75;;;;;;;;;;5072578;28;20012;-68
2022/03/26 05:58:41;;;;;;;40.63;13.32;;;;;;;;;;5071260;28;20036;-67
2022/03/26 06:01:07;;;;;;;37.30;12.80;;;;;;;;;;5053347;28;20089;-66
2022/03/26 06:03:33;;;;;;;41.20;12.98;;;;;;;;;;5071220;28;20525;-66
2022/03/26 06:05:59;;;;;;;36.97;12.55;;;;;;;;;;5070333;28;20040;-67
2022/03/26 06:08:25;;;;;;;26.17;12.32;;;;;;;;;;5071300;28;20107;-67
2022/03/26 06:10:51;;;;;;;38.97;12.68;;;;;;;;;;5072187;28;20112;-67
2022/03/26 06:13:17;;;;;;;45.30;13.45;;;;;;;;;;5074502;28;20032;-70
2022/03/26 06:15:43;;;;;;;66.65;17.48;;;;;;;;;;5072486;28;20119;-70
2022/03/26 06:18:10;;;;;;;79.15;19.25;;;;;;;;;;5072329;28;20028;-69
2022/03/26 06:20:36;;;;;;;54.88;19.92;;;;;;;;;;5075602;28;20510;-66
2022/03/26 06:23:02;;;;;;;61.55;20.55;;;;;;;;;;5061333;28;20036;-66
2022/03/26 06:25:28;;;;;;;55.03;21.40;;;;;;;;;;5077749;28;20479;-65
2022/03/26 06:27:54;;;;;;;48.58;23.33;;;;;;;;;;5077292;28;20422;-68
2022/03/26 06:30:20;;;;;;;56.67;24.33;;;;;;;;;;5076776;28;20555;-64
2022/03/26 06:32:46;;;;;;;44.80;22.98;;;;;;;;;;5077396;28;20028;-66
2022/03/26 06:35:12;;;;;;;55.92;22.88;;;;;;;;;;5081835;28;20093;-67
2022/03/26 06:37:38;;;;;;;49.20;23.60;;;;;;;;;;5074196;28;20025;-66
2022/03/26 06:40:05;;;;;;;41.28;22.70;;;;;;;;;;5061648;28;20029;-65
2022/03/26 06:42:31;;;;;;;50.25;23.58;;;;;;;;;;5044697;28;20025;-66
2022/03/26 06:44:59;;;;;;;40.78;23.10;;;;;;;;;;5063088;28;20096;-66
2022/03/26 06:47:26;;;;;;;39.45;23.15;;;;;;;;;;5061046;28;20523;-69
2022/03/26 06:49:53;;;;;;;40.00;22.75;;;;;;;;;;5064939;28;20395;-68
2022/03/26 06:52:19;;;;;;;42.97;23.90;;;;;;;;;;5059436;28;20383;-68
2022/03/26 06:54:45;;;;;;;38.42;23.65;;;;;;;;;;5056105;28;20029;-66
2022/03/26 06:57:11;;;;;;;36.10;22.50;;;;;;;;;;5071371;28;20092;-68
2022/03/26 06:59:38;;;;;;;47.22;24.15;;;;;;;;;;5060254;28;20106;-65
2022/03/26 07:02:04;;;;;;;42.53;24.00;;;;;;;;;;5059988;28;20039;-65
2022/03/26 07:04:30;;;;;;;46.80;23.98;;;;;;;;;;5059879;28;20110;-67
2022/03/26 07:06:56;;;;;;;36.67;22.98;;;;;;;;;;5041327;28;20052;-68
2022/03/26 07:09:23;;;;;;;41.47;24.30;;;;;;;;;;5066597;28;20486;-66
2022/03/26 07:11:50;;;;;;;42.72;24.02;;;;;;;;;;5067538;28;20021;-65
2022/03/26 07:14:16;;;;;;;48.60;23.63;;;;;;;;;;5063264;28;20071;-68
2022/03/26 07:16:43;;;;;;;48.03;24.58;;;;;;;;;;5060194;28;20085;-68
2022/03/26 07:19:09;;;;;;;47.47;23.95;;;;;;;;;;5062888;28;20020;-71
2022/03/26 07:21:37;;;;;;;46.65;24.42;;;;;;;;;;5063586;28;20056;-72
2022/03/26 07:24:04;;;;;;;43.53;24.08;;;;;;;;;;5051475;28;20382;-71
2022/03/26 07:26:30;;;;;;;42.58;24.60;;;;;;;;;;5063075;28;20021;-78
2022/03/26 07:28:56;;;;;;;41.70;24.92;;;;;;;;;;5073292;28;20400;-72
2022/03/26 07:31:23;;;;;;;39.83;24.33;;;;;;;;;;5061170;28;20017;-74
2022/03/26 07:33:49;;;;;;;39.88;25.02;;;;;;;;;;5063038;28;20040;-73
2022/03/26 07:36:15;;;;;;;52.30;26.33;;;;;;;;;;5056484;28;20029;-69
2022/03/26 07:38:42;;;;;;;43.55;26.80;;;;;;;;;;5053485;28;20196;-68
2022/03/26 07:41:08;;;;;;;51.60;26.23;;;;;;;;;;5054367;28;20021;-68
2022/03/26 07:43:34;;;;;;;52.55;29.25;;;;;;;;;;5063014;28;20048;-68
2022/03/26 07:46:01;;;;;;;60.92;30.73;;;;;;;;;;5052093;28;20056;-68
2022/03/26 07:48:27;;;;;;;53.72;31.30;;;;;;;;;;5049861;28;20037;-71
2022/03/26 07:50:53;;;;;;;58.78;31.00;;;;;;;;;;5070140;28;20494;-67
2022/03/26 07:53:19;;;;;;;61.95;32.67;;;;;;;;;;5080536;28;20526;-67
2022/03/26 07:55:45;;;;;;;58.88;33.45;;;;;;;;;;5059207;28;20036;-71
2022/03/26 07:58:11;;;;;;;60.63;34.08;;;;;;;;;;5040021;28;20365;-71
2022/03/26 08:00:37;;;;;;;80.35;35.17;;;;;;;;;;5047897;28;20025;-71
2022/03/26 08:03:03;;;;;;;64.93;35.08;;;;;;;;;;5064383;28;20422;-69
2022/03/26 08:05:29;;;;;;;79.03;36.10;;;;;;;;;;5065731;28;20575;-76
2022/03/26 08:07:55;;;;;;;70.47;34.70;;;;;;;;;;5036810;28;20116;-71
2022/03/26 08:10:21;;;;;;;66.00;35.35;;;;;;;;;;5066767;28;20111;-69
2022/03/26 08:12:47;;;;;;;73.43;35.88;;;;;;;;;;5070559;28;20395;-69
2022/03/26 08:15:13;;;;;;;62.53;34.75;;;;;;;;;;5094169;28;20031;-69
2022/03/26 08:17:39;;;;;;;71.13;34.95;;;;;;;;;;5041966;28;20025;-75
2022/03/26 08:20:07;;;;;;;66.18;33.92;;;;;;;;;;5073881;28;20138;-73
2022/03/26 08:22:34;;;;;;;65.07;35.80;;;;;;;;;;5066866;28;20482;-71
2022/03/26 08:25:00;;;;;;;66.68;34.38;;;;;;;;;;5043958;28;20100;-65
2022/03/26 08:27:26;;;;;;;74.90;34.63;;;;;;;;;;5073287;28;20099;-68
2022/03/26 08:29:52;;;;;;;78.78;36.13;;;;;;;;;;5056219;28;20164;-68
2022/03/26 08:32:18;;;;;;;68.57;35.13;;;;;;;;;;5051623;28;20357;-68
2022/03/26 08:34:44;;;;;;;74.13;33.88;;;;;;;;;;5074046;28;20045;-68
2022/03/26 08:37:11;;;;;;;66.82;36.10;;;;;;;;;;5052745;28;20027;-69
2022/03/26 08:39:37;;;;;;;57.13;33.40;;;;;;;;;;5079142;28;20021;-68
2022/03/26 08:42:03;;;;;;;72.22;33.80;;;;;;;;;;5068449;28;20037;-68
2022/03/26 08:44:29;;;;;;;70.50;33.45;;;;;;;;;;5038627;28;20036;-69
2022/03/26 08:46:57;;;;;;;68.18;34.15;;;;;;;;;;5054069;28;20031;-68
2022/03/26 08:49:23;;;;;;;65.75;33.15;;;;;;;;;;5061493;28;20079;-71
2022/03/26 08:51:49;;;;;;;60.85;33.63;;;;;;;;;;5066246;28;20013;-67
2022/03/26 08:54:15;;;;;;;71.38;33.97;;;;;;;;;;5061453;28;20028;-71
2022/03/26 08:56:41;;;;;;;68.95;33.03;;;;;;;;;;5064464;28;20025;-67
2022/03/26 08:59:07;;;;;;;58.72;32.10;;;;;;;;;;5058067;28;20353;-68
2022/03/26 09:01:33;;;;;;;62.45;31.65;;;;;;;;;;5061264;28;20546;-67
2022/03/26 09:03:59;;;;;;;61.63;31.33;;;;;;;;;;5054120;28;20029;-67
2022/03/26 09:06:25;;;;;;;53.50;30.23;;;;;;;;;;5047581;28;20123;-68
2022/03/26 09:08:51;;;;;;;72.50;32.20;;;;;;;;;;5065443;28;20120;-67
2022/03/26 09:11:17;;;;;;;67.30;30.30;;;;;;;;;;5080000;28;20460;-67
2022/03/26 09:13:45;;;;;;;56.58;30.40;;;;;;;;;;5074138;28;20048;-68
2022/03/26 09:16:11;;;;;;;61.47;30.73;;;;;;;;;;5071924;28;20051;-69
2022/03/26 09:18:37;;;;;;;57.45;29.58;;;;;;;;;;5072808;28;20036;-67
2022/03/26 09:21:04;;;;;;;54.75;29.02;;;;;;;;;;5072477;28;20029;-67
2022/03/26 09:23:30;;;;;;;48.58;28.00;;;;;;;;;;5072472;28;20028;-68
2022/03/26 09:25:57;;;;;;;54.80;28.35;;;;;;;;;;5074645;28;20035;-68
2022/03/26 09:28:23;;;;;;;67.63;27.75;;;;;;;;;;5053780;28;20044;-66
2022/03/26 09:30:50;;;;;;;53.35;26.83;;;;;;;;;;5073185;28;20033;-68
2022/03/26 09:33:16;;;;;;;51.65;28.38;;;;;;;;;;5063688;28;20409;-66
2022/03/26 09:35:42;;;;;;;52.08;27.25;;;;;;;;;;5064609;28;20440;-68
2022/03/26 09:38:08;;;;;;;56.60;27.70;;;;;;;;;;5067554;28;20446;-66
2022/03/26 09:40:35;;;;;;;44.97;26.55;;;;;;;;;;5069607;28;20515;-66
2022/03/26 09:43:02;;;;;;;51.38;26.52;;;;;;;;;;5082178;28;20025;-69
2022/03/26 09:45:28;;;;;;;56.45;25.40;;;;;;;;;;5060690;28;20372;-72
2022/03/26 09:47:54;;;;;;;42.70;24.40;;;;;;;;;;5063404;28;20032;-68
2022/03/26 09:50:21;;;;;;;49.67;26.80;;;;;;;;;;5063871;28;20049;-69
2022/03/26 09:52:47;;;;;;;43.20;24.60;;;;;;;;;;5062032;28;20021;-66
2022/03/26 09:55:13;;;;;;;47.70;25.02;;;;;;;;;;5060106;28;20391;-66
2022/03/26 09:57:39;;;;;;;51.78;24.52;;;;;;;;;;5082250;28;20032;-67
2022/03/26 10:00:06;;;;;;;47.80;23.83;;;;;;;;;;5084099;28;20020;-69
2022/03/26 10:02:32;;;;;;;51.42;24.17;;;;;;;;;;5065047;28;20037;-72
2022/03/26 10:04:58;;;;;;;53.13;24.48;;;;;;;;;;5061203;28;20456;-70
2022/03/26 10:07:28;;;;;;;53.75;23.58;;;;;;;;;;5072919;28;20027;-67
2022/03/26 10:09:55;;;;;;;44.72;23.65;;;;;;;;;;5072808;28;20149;-67
2022/03/26 10:12:22;;;;;;;44.28;23.25;;;;;;;;;;5083281;28;20016;-67
2022/03/26 10:14:52;;;;;;;45.30;22.30;;;;;;;;;;5093171;28;20526;-69
2022/03/26 10:17:19;;;;;;;44.78;22.25;;;;;;;;;;5092823;28;20726;-68
2022/03/26 10:20:08;;;;;;;49.83;22.83;;;;;;;;;;5093031;28;20739;-69
2022/03/26 10:22:38;;;;;;;43.40;22.25;;;;;;;;;;5086794;28;20040;-68
2022/03/26 10:25:07;;;;;;;46.40;22.50;;;;;;;;;;5083613;28;20175;-68
2022/03/26 10:27:38;;;;;;;45.00;23.55;;;;;;;;;;5073709;28;20098;-69
2022/03/26 10:30:05;;;;;;;50.38;23.70;;;;;;;;;;5068220;28;20143;-69
2022/03/26 10:32:50;;;;;;;43.65;23.55;;;;;;;;;;5067225;28;20016;-70
2022/03/26 10:35:21;;;;;;;37.72;21.02;;;;;;;;;;5062115;28;20028;-72
2022/03/26 10:38:01;;;;;;;46.05;21.23;;;;;;;;;;5069879;28;20032;-74
2022/03/26 10:40:32;;;;;;;37.22;21.35;;;;;;;;;;5055789;28;20044;-71
2022/03/26 10:43:00;;;;;;;39.90;21.83;;;;;;;;;;5073799;28;20025;-73
2022/03/26 10:45:27;;;;;;;37.92;22.10;;;;;;;;;;5079246;28;20039;-70
2022/03/26 10:47:54;;;;;;;43.58;22.25;;;;;;;;;;5068299;28;20045;-70
2022/03/26 10:50:20;;;;;;;45.15;21.25;;;;;;;;;;5052421;28;20161;-81
2022/03/26 10:52:46;;;;;;;43.85;21.45;;;;;;;;;;5070694;28;20547;-75
2022/03/26 10:55:13;;;;;;;53.67;23.90;;;;;;;;;;5065352;28;20036;-74
2022/03/26 10:57:39;;;;;;;46.60;22.75;;;;;;;;;;5071397;28;20044;-81
2022/03/26 11:00:05;;;;;;;48.00;22.67;;;;;;;;;;5058787;28;20024;-74
2022/03/26 11:02:32;;;;;;;45.03;22.58;;;;;;;;;;5076560;28;20524;-83
2022/03/26 11:04:59;;;;;;;55.17;22.75;;;;;;;;;;5072740;28;20076;-77
2022/03/26 11:07:25;;;;;;;63.33;23.40;;;;;;;;;;5058461;28;20024;-75
2022/03/26 11:09:52;;;;;;;84.13;23.95;;;;;;;;;;5042241;28;20029;-76
2022/03/26 11:12:18;;;;;;;108.55;24.95;;;;;;;;;;5064361;28;20021;-69
2022/03/26 11:14:46;;;;;;;84.65;24.00;;;;;;;;;;5076974;28;20082;-72
2022/03/26 11:17:24;;;;;;;77.90;23.00;;;;;;;;;;5074472;28;20032;-72
2022/03/26 11:20:10;;;;;;;53.17;22.48;;;;;;;;;;5075060;28;20028;-73
2022/03/26 11:22:48;;;;;;;66.55;21.25;;;;;;;;;;5036680;28;20029;-72
2022/03/26 11:25:30;;;;;;;62.30;21.85;;;;;;;;;;5054566;28;20056;-73
2022/03/26 11:27:56;;;;;;;57.05;20.88;;;;;;;;;;5036304;28;20017;-70
2022/03/26 11:30:31;;;;;;;57.25;20.63;;;;;;;;;;5038510;28;20044;-73
2022/03/26 11:33:08;;;;;;;73.43;20.92;;;;;;;;;;5056036;28;20021;-72
2022/03/26 11:35:34;;;;;;;51.45;20.98;;;;;;;;;;5077107;28;20086;-72
2022/03/26 11:38:02;;;;;;;56.63;20.20;;;;;;;;;;5073099;28;20021;-73
2022/03/26 11:40:46;;;;;;;52.55;19.88;;;;;;;;;;5043145;28;20454;-68
2022/03/26 11:43:15;;;;;;;51.78;20.95;;;;;;;;;;5064869;28;20036;-70
2022/03/26 11:51:23;;;;;;;40.70;18.80;;;;;;;;;;5055311;28;20085;-69
2022/03/26 11:53:51;;;;;;;34.58;17.23;;;;;;;;;;5070817;28;20460;-71
2022/03/26 11:56:31;;;;;;;42.30;18.60;;;;;;;;;;5062924;28;20032;-72
2022/03/26 11:59:06;;;;;;;47.53;18.05;;;;;;;;;;5082359;28;20102;-70
2022/03/26 12:01:36;;;;;;;38.70;17.48;;;;;;;;;;5069894;28;20036;-66
2022/03/26 12:04:09;;;;;;;40.40;18.13;;;;;;;;;;5081076;28;20066;-66
2022/03/26 12:07:10;;;;;;;33.30;16.20;;;;;;;;;;5084564;28;20035;-72
2022/03/26 12:09:38;;;;;;;35.67;16.65;;;;;;;;;;5016465;28;20469;-69
2022/03/26 12:12:16;;;;;;;42.53;17.42;;;;;;;;;;5066991;28;20031;-70
2022/03/26 12:15:01;;;;;;;42.45;16.58;;;;;;;;;;5043664;28;20037;-65
2022/03/26 12:17:46;;;;;;;33.67;16.70;;;;;;;;;;5050750;28;20117;-68
2022/03/26 12:20:26;;;;;;;33.65;16.27;;;;;;;;;;5075747;28;20071;-72
2022/03/26 12:22:53;;;;;;;36.63;16.98;;;;;;;;;;5073380;28;20020;-71
2022/03/26 12:25:32;;;;;;;38.83;18.92;;;;;;;;;;5071146;28;20413;-69
2022/03/26 12:27:58;;;;;;;47.00;21.08;;;;;;;;;;5073451;28;20398;-71
2022/03/26 12:30:25;;;;;;;40.42;21.02;;;;;;;;;;5054907;28;20491;-71
2022/03/26 12:32:51;;;;;;;55.03;22.40;;;;;;;;;;5072698;28;20130;-73
2022/03/26 12:35:18;;;;;;;56.53;23.65;;;;;;;;;;5054480;28;20028;-70
2022/03/26 12:37:48;;;;;;;53.65;23.58;;;;;;;;;;5071732;28;20054;-72
2022/03/26 12:40:16;;;;;;;56.22;24.88;;;;;;;;;;5073040;28;20510;-70
2022/03/26 12:42:42;;;;;;;58.58;24.65;;;;;;;;;;5072819;28;20036;-71
2022/03/26 12:45:15;;;;;;;60.03;26.15;;;;;;;;;;5071020;28;20033;-71
2022/03/26 12:47:48;;;;;;;52.58;24.23;;;;;;;;;;5072538;28;20035;-72
2022/03/26 12:50:18;;;;;;;54.42;25.63;;;;;;;;;;5054798;28;20487;-73
2022/03/26 12:52:44;;;;;;;55.85;27.42;;;;;;;;;;5072287;28;20055;-71
2022/03/26 12:55:11;;;;;;;63.10;27.77;;;;;;;;;;5054423;28;20067;-71
2022/03/26 13:00:26;;;;;;;64.47;27.92;;;;;;;;;;5071861;28;20070;-71
2022/03/26 13:03:04;;;;;;;67.28;28.42;;;;;;;;;;5073712;28;20021;-73
2022/03/26 13:05:31;;;;;;;69.93;31.58;;;;;;;;;;5055140;28;20072;-75
2022/03/26 13:07:58;;;;;;;65.05;31.48;;;;;;;;;;5073628;28;20025;-74
2022/03/26 13:10:37;;;;;;;70.93;30.10;;;;;;;;;;5055842;28;20064;-77
2022/03/26 13:13:05;;;;;;;64.45;31.10;;;;;;;;;;5073648;28;20059;-70
2022/03/26 13:15:31;;;;;;;68.53;31.85;;;;;;;;;;5073490;28;20074;-71
2022/03/26 13:17:58;;;;;;;70.20;30.58;;;;;;;;;;5073695;28;20075;-72
2022/03/26 13:20:28;;;;;;;62.90;31.02;;;;;;;;;;5073090;28;20030;-73
2022/03/26 13:22:58;;;;;;;69.90;32.17;;;;;;;;;;5073287;28;20094;-74
2022/03/26 13:25:25;;;;;;;65.22;31.33;;;;;;;;;;5072318;28;20029;-72
2022/03/26 13:27:51;;;;;;;73.35;31.83;;;;;;;;;;5073378;28;20070;-75
2022/03/26 13:30:18;;;;;;;75.45;33.15;;;;;;;;;;5073193;28;20371;-74
2022/03/26 13:32:44;;;;;;;75.70;33.95;;;;;;;;;;5073001;28;20020;-72
2022/03/26 13:35:11;;;;;;;70.32;31.67;;;;;;;;;;5054718;28;20028;-70
2022/03/26 13:37:37;;;;;;;72.20;32.38;;;;;;;;;;5055052;28;20056;-74
2022/03/26 13:40:04;;;;;;;64.13;30.63;;;;;;;;;;5054841;28;20488;-73
2022/03/26 13:42:30;;;;;;;68.28;33.38;;;;;;;;;;5072635;28;20024;-70
2022/03/26 13:44:57;;;;;;;80.05;32.15;;;;;;;;;;5072829;28;20029;-72
2022/03/26 13:47:23;;;;;;;76.13;34.03;;;;;;;;;;5072753;28;20103;-70
2022/03/26 13:50:24;;;;;;;67.88;33.05;;;;;;;;;;5072730;28;20107;-71
2022/03/26 13:52:52;;;;;;;68.47;32.03;;;;;;;;;;5010182;28;20030;-71
2022/03/26 13:55:25;;;;;;;67.43;31.02;;;;;;;;;;5060763;28;20040;-71
2022/03/26 13:57:53;;;;;;;95.68;31.25;;;;;;;;;;5072362;28;20024;-69
2022/03/26 14:00:21;;;;;;;88.68;30.52;;;;;;;;;;5072599;28;20024;-70
2022/03/26 14:02:47;;;;;;;76.20;31.42;;;;;;;;;;5072490;28;20029;-73
2022/03/26 14:05:17;;;;;;;72.25;30.63;;;;;;;;;;5072233;28;20048;-69
2022/03/26 14:07:43;;;;;;;74.32;31.25;;;;;;;;;;5072723;28;20036;-69
2022/03/26 14:10:11;;;;;;;76.53;30.70;;;;;;;;;;5071377;28;20072;-72
2022/03/26 14:12:37;;;;;;;79.30;30.95;;;;;;;;;;5054282;28;20036;-74
2022/03/26 14:15:03;;;;;;;70.05;30.85;;;;;;;;;;5071943;28;20037;-74
2022/03/26 14:17:29;;;;;;;68.28;30.23;;;;;;;;;;5072118;28;20033;-70
2022/03/26 14:19:55;;;;;;;76.50;31.73;;;;;;;;;;5072009;28;20031;-72
2022/03/26 14:22:21;;;;;;;72.45;31.80;;;;;;;;;;5071811;28;20048;-71
2022/03/26 14:24:47;;;;;;;73.15;31.70;;;;;;;;;;5071642;28;20020;-70
2022/03/26 14:27:13;;;;;;;78.25;31.83;;;;;;;;;;5072101;28;20443;-69
2022/03/26 14:29:39;;;;;;;68.90;32.05;;;;;;;;;;5071887;28;20033;-73
2022/03/26 14:32:05;;;;;;;62.40;29.75;;;;;;;;;;5054419;28;20356;-70
2022/03/26 14:34:31;;;;;;;64.88;29.35;;;;;;;;;;5054568;28;20078;-71